Weather observations for the past three days for
Charlevoix, Charlevoix Municipal Airport
Metric (Imperial)
Date Time (edt) Wind (kph) Vis. (km) Weather Sky Cond. Temperature (ºC) Relative Humidity Wind Chill (°C) Heat Index (°C) Pressure Precipitation (cm)
Air Dwpt 6 hour altimeter (cm) sea level (mb) 1 hr 3 hr 6 hr
Max. Min.
02 20:55 SW 6 16.09 Fair CLR 6 -7 39% 76.02 0.0
02 20:35 SW 7 16.09 Fair CLR 6 -7 39% 5 76.02 0.0
02 20:15 SW 9 16.09 Fair CLR 7 -8 34% 5 76.02 0.0
02 19:55 SW 13 16.09 Fair CLR 8 -8 9.4 6.5 32% 6 76.02 0.0
02 19:35 W 15 16.09 Fair CLR 8 -8 32% 6 76.05 0.0
02 19:15 W 11 16.09 Fair CLR 9 -8 29% 8 76.05 0.0
02 18:55 W 17 16.09 Fair CLR 9 -7 32% 7 76.07 0.0
02 18:35 Vrbl 4 16.09 Fair CLR 9 -9 27% 76.07 0.0
02 18:15 Vrbl 9 16.09 Fair CLR 9 -9 27% 8 76.07 0.0
02 17:55 W 9 16.09 Fair CLR 9 -8 29% 8 76.1 0.0
02 17:35 W 13 16.09 Fair CLR 9 -8 29% 7 76.12 0.0
02 17:15 W 17 16.09 Fair CLR 9 -7 32% 7 76.12 0.0
02 16:55 W 20 16.09 Fair CLR 8 -7 34% 5 76.15 0.0
02 16:35 W 22 16.09 Fair CLR 8 -8 32% 5 76.17 0.0
02 16:15 W 20 16.09 Fair CLR 8 -8 32% 5 76.17 0.0
02 15:55 W 24 16.09 Fair CLR 8 -8 32% 5 76.2 0.0
02 15:35 W 22 16.09 Fair CLR 8 -8 32% 5 76.23 0.0
02 15:15 W 22 16.09 Fair CLR 7 -8 34% 4 76.25 0.0
02 14:55 W 20 16.09 Fair CLR 7 -8 34% 4 76.25 0.0
02 14:35 W 24 16.09 Fair CLR 7 -7 37% 4 76.28 0.0
02 14:15 W 24 16.09 Fair CLR 7 -7 37% 4 76.28 0.0
02 13:55 W 24 16.09 Fair CLR 7 -7 7.4 1.5 37% 4 76.3 0.0
02 13:35 W 24 16.09 Fair CLR 7 -6 39% 4 76.3 0.0
02 13:15 W 26 16.09 Fair CLR 6 -5 46% 2 76.3 0.0
02 12:55 W 24 16.09 Fair CLR 7 -3 49% 4 76.3 0.0
02 12:35 W 24 16.09 Fair CLR 6 -3 53% 2 76.3 0.0
02 12:15 W 20 16.09 Fair CLR 6 -2 57% 3 76.33 0.0
02 11:55 W 20 16.09 Fair CLR 6 -2 57% 3 76.33 0.0
02 11:35 W 22 16.09 Fair CLR 6 -2 57% 2 76.33 0.0
02 11:15 W 20 16.09 Fair CLR 5 -4 53% 1 76.33 0.0
02 10:55 W 22 16.09 Fair CLR 5 -4 53% 1 76.33 0.0
02 10:35 W 20 16.09 Fair CLR 5 -4 53% 1 76.33 0.0
02 10:15 W 20 16.09 Fair CLR 5 -4 53% 1 76.35 0.0
02 09:55 W 19 16.09 Fair CLR 5 -4 53% 2 76.35 0.0
02 09:35 W 17 16.09 Fair CLR 4 -3 61% 1 76.35 0.0
02 09:15 W 19 16.09 Fair CLR 4 -3 61% 0 76.35 0.0
02 08:55 W 19 16.09 Fair CLR 4 -3 61% 0 76.35 0.0
02 08:35 W 19 16.09 Fair CLR 3 -3 65% -1 76.35 0.0
02 08:15 W 17 16.09 Fair CLR 2 -2 75% -2 76.35 0.0
02 07:55 W 15 16.09 Fair CLR 2 -2 1.5 -3.1 75% -2 76.35 0.0
02 07:35 W 15 16.09 Fair CLR 1 -2 81% -3 76.35 0.0
02 07:15 W 9 16.09 Fair CLR -1 -3 86% -4 76.35 0.0
02 06:55 W 9 16.09 Fair CLR -2 -3 93% -5 76.35 0.0
02 06:35 SW 9 16.09 Fair CLR -2 -3 93% -5 76.35 0.0
02 06:15 W 9 16.09 Fair CLR -2 -4 86% -5 76.33 0.0
02 05:55 W 9 16.09 Fair CLR -2 -3 93% -5 76.33 0.0
02 05:35 SW 9 16.09 Fair CLR -2 -3 93% -5 76.33 0.0
02 05:15 SW 7 16.09 Fair CLR -3 -4 93% -6 76.33 0.0
02 04:55 W 6 16.09 Fair CLR -3 -3 100% 76.33 0.0
02 04:35 SW 6 16.09 Fair CLR -2 -3 93% 76.33 0.0
02 04:15 SW 7 16.09 Fair CLR -1 -3 86% -3 76.3 0.0
02 03:55 SW 7 16.09 Fair CLR -2 -3 93% -4 76.33 0.0
02 03:35 W 7 16.09 Fair CLR -2 -3 93% -4 76.3 0.0
02 03:15 SW 7 16.09 Fair CLR -2 -3 93% -4 76.3 0.0
02 02:55 W 6 16.09 Fair CLR -1 -3 86% 76.33 0.0
02 02:35 W 6 16.09 Fair CLR -1 -3 86% 76.33 0.0
02 02:15 NW 6 16.09 Fair CLR -1 -2 93% 76.33 0.0
02 01:55 SW 4 16.09 Fair CLR -1 -2 2.6 -1 93% 76.33 0.0
02 01:35 NW 4 16.09 Fair CLR 1 -2 81% 76.33 0.0
02 01:15 N 6 16.09 Fair CLR 1 -2 81% 76.33 0.0
02 00:55 NW 6 16.09 A Few Clouds FEW045 1 -2 81% 76.33 0.0
02 00:35 NW 9 16.09 Fair CLR 1 -1 87% -2 76.3 0.0
02 00:15 W 9 16.09 Fair CLR 1 -2 81% -2 76.3 0.0
01 23:55 W 9 16.09 Fair CLR 1 -2 81% -2 76.33 0.0
01 23:35 NW 13 16.09 Fair CLR 1 -1 87% -2 76.33 0.0
01 23:15 W 13 16.09 Fair CLR 1 -1 87% -2 76.33 0.0
01 22:55 NW 15 16.09 Fair CLR 2 -1 81% -2 76.33 0.0
01 22:35 W 13 16.09 A Few Clouds FEW050 2 -2 75% -1 76.33 0.0
01 22:15 W 15 16.09 Mostly Cloudy BKN050 2 0 87% -2 76.33 0.0
01 21:55 W 11 16.09 Overcast BKN050 OVC070 2 0 87% -1 76.33 0.0
01 21:35 W 15 16.09 Overcast FEW050 OVC070 2 0 87% -2 76.33 0.0
01 21:15 W 17 16.09 Overcast FEW050 OVC070 2 -1 81% -2 76.3 0.0
01 20:55 W 15 16.09 Overcast SCT050 OVC070 2 0 87% -2 76.3 0.0
01 20:35 W 19 16.09 Overcast OVC070 2 0 87% -2 76.3 0.0
01 20:15 W 19 16.09 Overcast OVC070 2 0 87% -2 76.28 0.0
01 19:55 W 17 16.09 Overcast OVC080 3 0 4.7 2.5 81% -1 76.28 0.0
01 19:35 W 20 16.09 Overcast SCT070 OVC085 3 -1 75% -1 76.28 0.0
01 19:15 W 15 16.09 Overcast BKN070 OVC085 3 -1 75% -0 76.28 0.0
01 18:55 W 19 16.09 Overcast BKN060 OVC085 3 -2 70% -1 76.25 0.0
01 18:35 W 19 16.09 Overcast OVC060 3 -1 75% -1 76.28 0.0
01 18:15 W 15 16.09 Overcast OVC060 3 -1 75% -0 76.28 0.0
01 17:55 W 17 16.09 Overcast FEW048 OVC070 3 -1 75% -1 76.25 0.0
01 17:35 W 19 16.09 Overcast BKN070 OVC080 3 0 81% -1 76.25 0.0
01 17:15 W 20 16.09 Overcast OVC060 3 0 81% -1 76.25 0.0
01 16:55 W 20 16.09 Overcast OVC065 3 0 81% -1 76.23 0.0
01 16:35 NW 17 16.09 Overcast FEW050 OVC065 4 0 75% 1 76.23 0.0
01 16:15 W 20 16.09 Overcast SCT039 BKN050 OVC070 4 -1 70% 0 76.23 0.0
01 15:55 W 24 16.09 Overcast SCT012 OVC070 4 0 75% -0 76.23 0.0
01 15:35 W 22 16.09 Overcast OVC080 4 0 75% -0 76.23 0.0
01 15:15 NW 22 16.09 Overcast FEW014 OVC080 4 0 75% -0 76.23 0.0
01 14:55 W 17 16.09 Overcast SCT012 OVC080 4 0 75% 1 76.23 0.0
01 14:35 W 15 16.09 Overcast BKN012 OVC080 4 0 75% 1 76.23 0.0
01 14:15 W 15 16.09 Overcast BKN014 OVC080 4 0 75% 1 76.2 0.0
01 13:55 NW 19 16.09 Overcast FEW010 BKN014 OVC080 4 0 4.8 1.3 75% 0 76.2 0.0
01 13:35 W 20 16.09 Overcast OVC080 5 0 70% 1 76.2 0.0
01 13:15 NW 13 16.09 Overcast OVC080 4 0 75% 1 76.2 0.0
01 12:55 NW 15 16.09 Overcast OVC080 4 0 75% 1 76.2 0.0
01 12:35 NW 15 16.09 Overcast OVC080 4 0 75% 1 76.2 0.0
01 12:15 NW 13 16.09 Overcast OVC080 4 0 75% 1 76.23 0.0
01 11:55 NW 13 16.09 Overcast FEW015 OVC080 4 0 75% 1 76.23 0.0
01 11:35 NW 13 16.09 Overcast BKN013 OVC065 3 0 81% 0 76.2 0.0
01 11:15 NW 11 16.09 Overcast BKN013 OVC065 3 -1 75% 0 76.2 0.0
01 10:55 NW 9 16.09 Overcast BKN013 OVC018 2 0 87% -0 76.23 0.0
01 10:35 NW 15 16.09 Light Rain OVC012 2 0 87% -2 76.2 0.0
01 10:15 NW 9 16.09 Overcast OVC014 2 0 87% -0 76.2 0.0
01 09:55 NW 13 16.09 Overcast SCT014 OVC060 2 0 87% -1 76.2 0.0
01 09:35 NW 11 16.09 Overcast FEW012 OVC060 2 0 87% -1 76.2 0.0
01 09:15 NW 13 16.09 Overcast SCT012 OVC060 2 0 87% -1 76.2 0.0
01 08:55 NW 11 16.09 Mostly Cloudy SCT014 BKN060 2 0 87% -1 76.2 0.0
01 08:35 NW 13 16.09 Partly Cloudy FEW012 SCT070 2 -1 81% -1 76.2 0.0
01 08:15 NW 13 16.09 Overcast FEW046 OVC070 2 -1 81% -1 76.17 0.0
01 07:55 NW 9 16.09 Overcast FEW009 BKN044 OVC070 1 0 1.9 0.6 93% -2 76.17 0.0
01 07:35 Vrbl 6 16.09 Overcast FEW009 OVC044 1 -1 87% 76.17 0.0
01 07:15 NW 11 16.09 Overcast BKN044 OVC080 1 -1 87% -2 76.15 0.0
01 06:55 NW 9 16.09 Overcast BKN044 OVC080 1 -1 87% -2 76.15 0.0
01 06:35 NW 11 16.09 Overcast SCT044 OVC080 1 -1 87% -2 76.15 0.0
01 06:15 NW 9 16.09 Overcast SCT042 OVC080 1 -2 81% -2 76.15 0.0
01 05:55 NW 11 16.09 Overcast FEW044 OVC080 1 -2 81% -2 76.15 0.0
01 05:35 NW 13 16.09 Overcast BKN044 OVC080 1 -2 81% -2 76.15 0.0
01 05:15 NW 9 16.09 Overcast SCT044 OVC080 1 -1 87% -2 76.15 0.0
01 04:55 NW 9 16.09 Overcast OVC080 1 -1 87% -2 76.15 0.0
01 04:35 NW 9 16.09 Overcast OVC080 1 -1 87% -2 76.15 0.0
01 04:15 NW 9 16.09 Overcast OVC080 1 -2 81% -2 76.15 0.0
01 03:55 NW 9 16.09 Overcast OVC090 1 -2 81% -2 76.15 0.0
01 03:35 NW 11 16.09 Overcast OVC090 1 -2 81% -2 76.15 0.0
01 03:15 NW 11 16.09 Overcast OVC090 2 -2 75% -1 76.15 0.0
01 02:55 NW 11 16.09 Overcast OVC090 2 -2 75% -1 76.17 0.0
01 02:35 NW 11 16.09 Overcast FEW036 OVC090 2 -1 81% -1 76.17 0.0
01 02:15 NW 9 16.09 Overcast SCT035 SCT050 OVC090 2 -1 81% -0 76.17 0.0
01 01:55 NW 9 16.09 Overcast BKN035 OVC049 2 -1 3.4 1.9 81% -0 76.2 0.0
01 01:35 NW 11 16.09 Overcast OVC033 2 0 87% -1 76.2 0.0
01 01:15 NW 13 16.09 Overcast BKN033 OVC065 2 0 87% -1 76.2 0.0
01 00:55 NW 9 16.09 Overcast FEW029 OVC065 2 -1 81% -0 76.2 0.0
01 00:35 N 13 16.09 Overcast BKN065 OVC095 2 -1 81% -1 76.2 0.0
01 00:15 NW 13 16.09 Overcast SCT065 OVC095 2 -1 81% -1 76.17 0.0
30 23:55 N 11 16.09 Overcast SCT065 OVC095 2 -1 81% -1 76.2 0.0
30 23:35 N 11 16.09 Overcast OVC085 2 -1 81% -1 76.2 0.0
30 23:15 NW 7 16.09 Overcast OVC085 2 0 87% 0 76.2 0.0
30 22:55 NW 7 16.09 Overcast OVC085 3 0 81% 1 76.2 0.0
30 22:35 NW 9 16.09 Overcast OVC085 3 0 81% 1 76.2 0.0
30 22:15 NW 11 16.09 Overcast OVC085 3 0 81% 0 76.2 0.0
30 21:55 W 11 16.09 Overcast OVC085 3 0 81% 0 76.2 0.0
30 21:35 W 15 16.09 Overcast OVC085 3 0 81% -0 76.17 0.0
30 21:15 W 17 16.09 Overcast OVC085 3 0 81% -1 76.17 0.0
30 20:55 W 15 16.09 Overcast OVC095 3 0 81% -0 76.15 0.0
30 20:35 W 17 16.09 Overcast OVC095 3 -1 75% -1 76.15 0.0
30 20:15 W 19 16.09 Overcast OVC095 3 -1 75% -1 76.15 0.0
30 19:55 W 17 16.09 Overcast OVC095 3 -1 6.3 3.2 75% -1 76.12 0.0
30 19:35 W 22 16.09 Partly Cloudy SCT095 4 -1 70% -0 76.12 0.0
30 19:15 W 19 16.09 A Few Clouds FEW090 5 -1 66% 2 76.12 0.0
30 18:55 W 22 16.09 Mostly Cloudy BKN090 5 -1 66% 1 76.15 0.0
30 18:35 W 24 16.09 Overcast OVC090 5 -1 66% 1 76.15 0.0
30 18:15 W 19 16.09 Overcast OVC090 5 0 70% 2 76.15 0.0
30 17:55 W 17 16.09 Overcast OVC090 5 0 70% 2 76.15 0.0
30 17:35 W 20 16.09 Mostly Cloudy BKN090 5 0 70% 1 76.15 0.0
30 17:15 W 20 16.09 A Few Clouds FEW090 4 0 75% 0 76.15 0.0
30 16:55 W 20 16.09 Fair CLR 5 0 70% 1 76.15 0.0
30 16:35 W 26 16.09 Fair CLR 5 0 70% 1 76.15 0.0
30 16:15 W 26 G 31 16.09 Fair CLR 5 0 70% 1 76.17 0.0
30 15:55 W 28 16.09 Fair CLR 6 1 71% 2 76.15 0.0
30 15:35 W 20 16.09 Fair CLR 5 0 70% 1 76.17 0.0
30 15:15 W 20 16.09 Partly Cloudy SCT011 5 1 76% 1 76.17 0.0
30 14:55 W 19 16.09 Mostly Cloudy BKN009 5 2 81% 2 76.17 0.0
30 14:35 W 20 16.09 Overcast BKN009 OVC021 5 2 81% 1 76.17 0.0
30 14:15 W 20 16.09 Overcast BKN009 BKN013 OVC019 5 2 81% 1 76.17 0.0
30 13:55 W 17 16.09 Overcast OVC007 4 2 4.9 1.3 87% 1 76.17 0.0
30 13:35 NW 17 16.09 Overcast OVC005 3 2 93% -1 76.17 0.0
30 13:15 W 15 16.09 Overcast OVC005 3 2 93% -0 76.17 0.0
30 12:55 W 17 16.09 Light Rain BKN005 OVC015 2 2 100% -2 76.2 0.0
30 12:35 NW 15 16.09 Light Drizzle BKN003 OVC012 2 1 93% -2 76.2 0.0
30 12:15 NW 17 16.09 Light Drizzle BKN003 OVC013 2 2 100% -2 76.2 0.0
30 11:55 NW 17 16.09 Light Rain OVC003 2 1 93% -2 76.2 0.0
30 11:35 NW 11 16.09 Light Drizzle OVC003 2 2 100% -1 76.2 0.0
30 11:15 NW 15 16.09 Light Rain OVC003 2 2 100% -2 76.17 0.0
30 10:55 W 15 16.09 Light Rain OVC003 2 1 93% -2 76.17 0.0
30 10:35 NW 11 16.09 Light Rain OVC003 2 1 93% -1 76.17 0.0
30 10:15 NW 11 16.09 Light Rain OVC003 1 1 100% -2 76.17 0.0
30 09:55 N 9 16.09 Light Rain OVC007 2 1 93% -0 76.17 0.0
30 09:35 N 11 16.09 Light Rain OVC009 2 1 93% -1 76.17 0.0
30 09:15 N 11 16.09 Light Rain OVC009 2 1 93% -1 76.17 0.0
30 08:55 N 13 16.09 Light Rain BKN009 OVC035 2 1 93% -1 76.17 0.0
30 08:35 N 13 16.09 Light Rain SCT009 BKN040 OVC050 2 1 93% -1 76.15 0.0
30 08:15 N 15 16.09 Light Drizzle FEW035 BKN046 OVC050 2 0 87% -2 76.15 0.0
30 07:55 N 13 16.09 Overcast SCT043 OVC050 2 0 2.7 1.8 87% -1 76.15 0.0
30 07:35 N 13 16.09 Overcast OVC055 2 0 87% -1 76.15 0.0
30 07:15 N 11 16.09 Overcast OVC060 2 0 87% -1 76.12 0.0
30 06:55 N 11 16.09 Overcast OVC070 2 0 87% -1 76.12 0.0
30 06:35 N 15 16.09 Overcast FEW065 OVC070 2 0 87% -2 76.12 0.0
30 06:15 N 11 16.09 Overcast OVC080 2 0 87% -1 76.12 0.0
30 05:55 N 9 16.09 Overcast OVC080 2 0 87% -0 76.12 0.0
30 05:35 N 13 16.09 Overcast OVC080 2 0 87% -1 76.12 0.0
30 05:15 N 11 16.09 Overcast OVC080 2 0 87% -1 76.12 0.0
30 04:55 NW 9 16.09 Mostly Cloudy BKN090 2 0 87% -0 76.12 0.0
30 04:35 NW 7 16.09 Overcast SCT070 OVC090 2 0 87% 0 76.12 0.0
30 04:15 NW 7 16.09 Overcast BKN070 OVC090 2 0 87% 0 76.1 0.0
30 03:55 NW 6 16.09 Overcast OVC100 2 0 87% 76.1 0.0
30 03:35 NW 6 16.09 Overcast OVC100 2 0 87% 76.1 0.0
30 03:15 NW 6 16.09 Overcast OVC100 2 0 87% 76.1 0.0
30 02:55 N 6 16.09 Overcast OVC100 2 0 87% 76.1 0.0
30 02:35 N 7 16.09 Mostly Cloudy BKN100 2 -1 81% 0 76.12 0.0
30 02:15 N 7 16.09 A Few Clouds FEW100 3 -1 75% 1 76.12 0.0
30 01:55 Vrbl 7 16.09 A Few Clouds FEW110 3 -1 5.2 2.3 75% 1 76.12 0.0
30 01:35 N 7 16.09 Partly Cloudy SCT110 3 0 81% 1 76.12 0.0
30 01:15 N 11 16.09 Mostly Cloudy BKN110 3 0 81% 0 76.12 0.0
30 00:55 N 9 16.09 Mostly Cloudy BKN110 2 0 87% -0 76.12 0.0
30 00:35 N 9 16.09 Partly Cloudy SCT110 2 0 87% -0 76.12 0.0
30 00:15 N 11 16.09 Mostly Cloudy BKN120 3 -1 75% 0 76.12 0.0
29 23:55 N 13 16.09 A Few Clouds FEW120 3 -1 75% 0 76.12 0.0
29 23:35 N 15 16.09 Fair CLR 3 0 81% -0 76.12 0.0
29 23:15 N 9 16.09 Fair CLR 3 0 81% 1 76.15 0.0
29 22:55 NW 9 16.09 Fair CLR 3 0 81% 1 76.15 0.0
29 22:35 NW 11 16.09 A Few Clouds FEW120 3 0 81% 0 76.12 0.0
29 22:15 W 7 16.09 Partly Cloudy SCT110 3 0 81% 1 76.12 0.0
29 21:55 W 11 16.09 Partly Cloudy SCT110 3 0 81% 0 76.12 0.0
29 21:35 W 11 16.09 A Few Clouds FEW120 4 -1 70% 2 76.1 0.0
29 21:15 NW 11 16.09 A Few Clouds FEW120 4 -1 70% 2 76.1 0.0
Date Time (edt) Wind (kph) Vis. (km) Weather Sky Cond. Air Dwpt Max. Min. Relative Humidity Wind Chill (°C) Heat Index (°C) altimeter (cm) sea level (mb) 1 hr 3 hr 6 hr
6 hour
Temperature (ºC) Pressure Precipitation (cm)